Time;durP1;ratioP1;P1;durP2;ratioP2;P2;SDS_P1;SDS_P2;PMS_P1;PMS_P2;Temp;Humidity;BMP_temperature;BMP_pressure;BME280_temperature;BME280_humidity;BME280_pressure;Samples;Min_cycle;Max_cycle;Signal;HPM_P1;HPM_P2
2022/10/23 00:01:21;;;;;;;64.10;29.27;;;;;;;15.60;100.00;100971.75;4902184;29;20132;-88
2022/10/23 00:03:51;;;;;;;51.80;28.92;;;;;;;15.61;100.00;100973.41;4903247;29;20123;-89
2022/10/23 00:06:17;;;;;;;54.80;29.65;;;;;;;15.59;100.00;100972.78;4902574;29;20047;-89
2022/10/23 00:08:44;;;;;;;63.03;32.50;;;;;;;15.55;100.00;100978.66;4903018;29;20036;-91
2022/10/23 00:11:19;;;;;;;58.10;28.77;;;;;;;15.87;100.00;100971.13;4903600;29;20096;-90
2022/10/23 00:13:45;;;;;;;56.90;28.45;;;;;;;15.65;100.00;100969.34;4903037;29;20405;-89
2022/10/23 00:16:11;;;;;;;56.92;28.33;;;;;;;15.64;100.00;100974.91;4902961;29;20064;-92
2022/10/23 00:18:37;;;;;;;48.55;27.45;;;;;;;15.54;100.00;100961.81;4904565;29;20044;-90
2022/10/23 00:21:06;;;;;;;63.05;30.35;;;;;;;15.51;100.00;100978.22;4912639;29;20057;-88
2022/10/23 00:23:33;;;;;;;50.97;28.65;;;;;;;15.58;100.00;100980.97;4916175;29;20063;-89
2022/10/23 00:25:59;;;;;;;55.58;28.63;;;;;;;15.70;100.00;100975.00;4904141;29;20048;-90
2022/10/23 00:28:25;;;;;;;60.83;30.10;;;;;;;15.53;100.00;100976.19;4904875;29;20040;-89
2022/10/23 00:30:50;;;;;;;48.15;29.48;;;;;;;15.35;100.00;100967.63;4903879;29;20049;-89
2022/10/23 00:33:16;;;;;;;58.13;29.67;;;;;;;15.61;100.00;100968.06;4903615;29;20187;-86
2022/10/23 00:35:42;;;;;;;60.22;31.15;;;;;;;15.66;100.00;100979.03;4903062;29;20047;-88
2022/10/23 00:38:08;;;;;;;48.22;29.92;;;;;;;15.43;100.00;100970.25;4904473;29;20040;-87
2022/10/23 00:40:35;;;;;;;55.33;33.00;;;;;;;15.36;100.00;100958.63;4904665;29;20032;-90
2022/10/23 00:43:01;;;;;;;60.42;31.45;;;;;;;15.73;100.00;100966.59;4902885;29;20040;-87
2022/10/23 00:45:32;;;;;;;53.30;30.85;;;;;;;15.49;100.00;100969.53;4886580;29;20410;-89
2022/10/23 00:48:01;;;;;;;62.22;32.78;;;;;;;15.46;100.00;100970.69;4905296;29;20108;-89
2022/10/23 00:50:30;;;;;;;65.43;33.20;;;;;;;15.56;100.00;100970.47;4905070;29;20096;-92
2022/10/23 00:52:59;;;;;;;63.60;34.50;;;;;;;15.36;100.00;100969.31;4906171;29;20037;-89
2022/10/23 00:55:25;;;;;;;64.50;35.65;;;;;;;15.30;100.00;100970.03;4907829;29;20045;-90
2022/10/23 00:57:52;;;;;;;67.22;36.08;;;;;;;15.21;100.00;100977.28;4894528;29;20179;-89
2022/10/23 01:00:39;;;;;;;64.50;34.85;;;;;;;15.50;100.00;100972.03;4910193;29;20052;-89
2022/10/23 01:03:04;;;;;;;65.53;37.00;;;;;;;15.65;100.00;100984.56;4909661;29;20131;-88
2022/10/23 01:05:44;;;;;;;68.03;35.58;;;;;;;15.70;100.00;100988.34;4907512;29;20142;-88
2022/10/23 01:08:27;;;;;;;65.50;33.80;;;;;;;15.59;100.00;100979.94;4903402;29;20051;-90
2022/10/23 01:11:18;;;;;;;65.95;34.75;;;;;;;15.57;100.00;100985.50;4901803;29;20064;-89
2022/10/23 01:13:53;;;;;;;67.50;35.80;;;;;;;15.52;100.00;100977.19;4900109;29;20037;-88
2022/10/23 01:16:28;;;;;;;57.58;35.78;;;;;;;15.80;100.00;100982.72;4901086;29;20273;-89
2022/10/23 01:19:00;;;;;;;68.75;35.80;;;;;;;15.62;100.00;100984.94;4912487;29;20044;-89
2022/10/23 01:21:44;;;;;;;72.10;36.20;;;;;;;15.52;100.00;100970.00;4901764;29;20096;-90
2022/10/23 01:24:55;;;;;;;70.85;37.15;;;;;;;15.68;100.00;100982.34;4899920;29;20055;-89
2022/10/23 01:27:23;;;;;;;73.68;38.50;;;;;;;15.58;100.00;100978.31;4847166;29;20124;-89
2022/10/23 01:30:08;;;;;;;65.97;37.85;;;;;;;15.55;100.00;100978.66;4896099;29;20041;-88
2022/10/23 01:32:57;;;;;;;72.80;38.28;;;;;;;15.53;100.00;100970.84;4901251;29;20062;-91
2022/10/23 01:35:29;;;;;;;78.43;39.53;;;;;;;15.61;100.00;100968.06;4902392;29;20048;-91
2022/10/23 01:38:18;;;;;;;79.97;37.70;;;;;;;15.62;100.00;100963.56;4902236;29;20037;-91
2022/10/23 01:41:22;;;;;;;70.20;37.55;;;;;;;15.46;100.00;100969.88;4895645;29;20399;-91
2022/10/23 01:44:06;;;;;;;71.20;37.30;;;;;;;15.41;100.00;100966.94;4905416;29;20040;-91
2022/10/23 01:46:37;;;;;;;69.43;38.28;;;;;;;15.36;100.00;100963.97;4910753;29;20063;-90
2022/10/23 01:49:09;;;;;;;66.55;38.33;;;;;;;15.31;100.00;100971.69;4911119;29;20040;-90
2022/10/23 01:51:37;;;;;;;73.82;38.70;;;;;;;15.30;100.00;100970.03;4919926;29;20028;-89
2022/10/23 01:54:16;;;;;;;73.53;39.05;;;;;;;15.31;100.00;100967.16;4923559;29;20028;-91
2022/10/23 01:56:46;;;;;;;63.15;36.60;;;;;;;15.36;100.00;100969.31;4894492;29;20072;-91
2022/10/23 01:59:18;;;;;;;65.75;36.17;;;;;;;15.36;100.00;100958.63;4905245;29;20043;-91
2022/10/23 02:01:47;;;;;;;66.93;35.53;;;;;;;15.28;100.00;100956.06;4916086;29;20068;-89
2022/10/23 02:04:17;;;;;;;67.28;35.90;;;;;;;15.27;100.00;100954.38;4922586;29;20037;-91
2022/10/23 02:06:43;;;;;;;59.92;32.90;;;;;;;15.25;100.00;100941.19;4907894;29;20211;-91
2022/10/23 02:09:13;;;;;;;65.82;34.53;;;;;;;15.43;100.00;100948.88;4905590;29;20039;-91
2022/10/23 02:11:53;;;;;;;63.50;33.00;;;;;;;15.35;100.00;100956.94;4906505;29;20037;-90
2022/10/23 02:15:03;;;;;;;58.83;34.33;;;;;;;15.31;100.00;100953.00;4905704;29;20614;-91
2022/10/23 02:17:36;;;;;;;61.05;33.15;;;;;;;15.33;100.00;100953.66;4851459;29;20136;-90
2022/10/23 02:20:19;;;;;;;61.05;34.50;;;;;;;15.40;100.00;100959.91;4849609;29;20041;-88
2022/10/23 02:23:20;;;;;;;63.60;33.92;;;;;;;15.28;100.00;100956.84;4882194;29;20061;-91
2022/10/23 02:25:51;;;;;;;61.53;34.00;;;;;;;15.32;100.00;100951.97;4899414;29;20052;-92
2022/10/23 02:28:24;;;;;;;63.25;34.30;;;;;;;15.29;100.00;100957.69;4901778;29;20067;-87
2022/10/23 02:30:58;;;;;;;60.00;32.33;;;;;;;15.35;100.00;100956.94;4900995;29;20146;-88
2022/10/23 02:33:26;;;;;;;54.13;32.80;;;;;;;15.29;100.00;100952.34;4901104;29;20051;-87
2022/10/23 02:35:52;;;;;;;58.13;32.40;;;;;;;15.27;100.00;100949.03;4901458;29;20036;-88
2022/10/23 02:38:33;;;;;;;68.30;31.13;;;;;;;15.37;100.00;100944.25;4919014;29;20040;-89
2022/10/23 02:41:34;;;;;;;51.15;30.10;;;;;;;15.36;100.00;100950.59;4919498;29;20132;-88
2022/10/23 02:44:08;;;;;;;54.75;30.05;;;;;;;15.30;100.00;100946.84;4927992;29;20047;-89
2022/10/23 02:47:09;;;;;;;58.65;31.75;;;;;;;15.20;100.00;100937.41;4903827;29;20071;-86
2022/10/23 02:49:37;;;;;;;48.67;29.58;;;;;;;15.36;100.00;100937.25;4867762;29;20053;-89
2022/10/23 02:52:18;;;;;;;58.97;31.73;;;;;;;15.23;100.00;100942.41;4922639;29;20040;-91
2022/10/23 02:55:18;;;;;;;56.92;31.77;;;;;;;15.18;100.00;100936.78;4923261;29;20040;-87
2022/10/23 02:57:50;;;;;;;55.72;30.73;;;;;;;15.11;100.00;100934.00;4866934;29;20037;-87
2022/10/23 03:00:18;;;;;;;61.17;32.13;;;;;;;15.09;100.00;100932.50;4910775;29;20398;-89
2022/10/23 03:03:16;;;;;;;60.60;33.95;;;;;;;15.10;100.00;100927.00;4921811;29;20398;-89
2022/10/23 03:05:43;;;;;;;65.20;35.65;;;;;;;15.11;100.00;100933.19;4921452;29;20545;-87
2022/10/23 03:08:11;;;;;;;68.28;35.25;;;;;;;15.14;100.00;100930.16;4905360;29;20036;-89
2022/10/23 03:10:37;;;;;;;70.32;36.88;;;;;;;15.21;100.00;100926.53;4923403;29;20059;-90
2022/10/23 03:13:04;;;;;;;65.43;35.60;;;;;;;15.14;100.00;100935.47;4923353;29;20043;-87
2022/10/23 03:15:38;;;;;;;77.75;39.00;;;;;;;15.13;100.00;100934.66;4921126;29;20028;-90
2022/10/23 03:18:05;;;;;;;73.78;41.20;;;;;;;15.05;100.00;100928.56;4921557;29;20126;-87
2022/10/23 03:20:31;;;;;;;75.22;41.17;;;;;;;14.98;100.00;100931.94;4905195;29;20036;-88
2022/10/23 03:22:58;;;;;;;82.30;44.08;;;;;;;15.01;100.00;100920.91;4919422;29;20066;-86
2022/10/23 03:25:25;;;;;;;84.30;44.95;;;;;;;14.95;100.00;100924.28;4919456;29;20055;-89
2022/10/23 03:27:51;;;;;;;96.00;48.55;;;;;;;14.92;100.00;100916.66;4920985;29;20036;-90
2022/10/23 03:30:17;;;;;;;97.00;47.22;;;;;;;14.95;100.00;100918.97;4919595;29;20051;-90
2022/10/23 03:32:47;;;;;;;94.65;48.83;;;;;;;14.97;100.00;100913.44;4919653;29;20059;-88
2022/10/23 03:35:13;;;;;;;96.03;50.00;;;;;;;14.95;100.00;100918.97;4919254;29;20231;-89
2022/10/23 03:37:38;;;;;;;107.38;51.63;;;;;;;14.90;100.00;100918.69;4920501;29;20043;-88
2022/10/23 03:40:07;;;;;;;94.00;48.45;;;;;;;14.99;100.00;100925.59;4918566;29;20032;-88
2022/10/23 03:42:33;;;;;;;108.90;51.85;;;;;;;14.95;100.00;100931.47;4923956;29;20477;-86
2022/10/23 03:44:59;;;;;;;102.88;52.53;;;;;;;14.96;100.00;100933.97;4930073;29;20024;-89
2022/10/23 03:47:25;;;;;;;109.22;54.70;;;;;;;14.96;100.00;100936.63;4925938;29;20028;-87
2022/10/23 03:49:51;;;;;;;104.82;53.13;;;;;;;14.90;100.00;100937.38;4919333;29;20054;-89
2022/10/23 03:52:16;;;;;;;110.32;52.65;;;;;;;14.92;100.00;100940.66;4919717;29;20548;-91
2022/10/23 03:54:42;;;;;;;124.50;57.28;;;;;;;14.91;100.00;100939.00;4919304;29;20036;-89
2022/10/23 03:57:08;;;;;;;119.18;55.35;;;;;;;14.93;100.00;100930.81;4902561;29;20047;-89
2022/10/23 03:59:34;;;;;;;127.75;57.92;;;;;;;14.90;100.00;100928.53;4920226;29;20061;-88
2022/10/23 04:02:00;;;;;;;126.13;56.97;;;;;;;14.88;100.00;100926.03;4920419;29;20036;-86
2022/10/23 04:04:26;;;;;;;134.30;58.28;;;;;;;14.89;100.00;100927.69;4926744;29;20128;-85
2022/10/23 04:06:52;;;;;;;132.75;58.83;;;;;;;14.88;100.00;100923.34;4927702;29;20047;-87
2022/10/23 04:09:18;;;;;;;144.45;60.72;;;;;;;14.91;100.00;100931.00;4923424;29;20087;-86
2022/10/23 04:11:44;;;;;;;135.50;59.55;;;;;;;15.06;100.00;100941.72;4908872;29;20040;-87
2022/10/23 04:14:12;;;;;;;135.60;56.95;;;;;;;14.97;100.00;100932.13;4925846;29;20063;-87
2022/10/23 04:16:37;;;;;;;145.90;60.35;;;;;;;14.88;100.00;100943.91;4925067;29;20071;-88
2022/10/23 04:19:04;;;;;;;144.57;61.30;;;;;;;14.86;100.00;100946.72;4918620;29;20095;-88
2022/10/23 04:21:30;;;;;;;135.93;60.10;;;;;;;14.90;100.00;100948.03;4918775;29;20028;-89
2022/10/23 04:23:56;;;;;;;147.82;61.88;;;;;;;14.85;100.00;100937.06;4917615;29;20044;-88
2022/10/23 04:26:21;;;;;;;149.15;61.83;;;;;;;14.87;100.00;100943.06;4917967;29;20500;-90
2022/10/23 04:28:47;;;;;;;152.25;62.47;;;;;;;14.84;100.00;100947.94;4918371;29;20125;-87
2022/10/23 04:31:12;;;;;;;157.93;65.35;;;;;;;14.83;100.00;100940.91;4919713;29;20043;-86
2022/10/23 04:33:41;;;;;;;178.60;68.13;;;;;;;14.77;100.00;100950.47;4918347;29;20036;-87
2022/10/23 04:36:07;;;;;;;170.90;65.00;;;;;;;14.79;100.00;100944.94;4923476;29;20043;-91
2022/10/23 04:38:33;;;;;;;166.02;66.40;;;;;;;14.77;100.00;100955.81;4923171;29;20059;-88
2022/10/23 04:41:00;;;;;;;194.93;68.20;;;;;;;14.73;100.00;100953.69;4919402;29;20038;-89
2022/10/23 04:43:28;;;;;;;185.98;68.32;;;;;;;14.77;100.00;100958.47;4918555;29;20040;-86
2022/10/23 04:45:55;;;;;;;185.07;70.18;;;;;;;14.79;100.00;100956.47;4920127;29;20127;-87
2022/10/23 04:48:21;;;;;;;183.75;70.10;;;;;;;14.79;100.00;100950.28;4921613;29;20470;-88
2022/10/23 04:51:05;;;;;;;224.18;72.68;;;;;;;14.72;100.00;100949.34;4921317;29;20569;-88
2022/10/23 04:53:52;;;;;;;191.73;71.25;;;;;;;14.80;100.00;100958.13;4922419;29;20107;-87
2022/10/23 04:56:49;;;;;;;356.33;69.97;;;;;;;14.66;100.00;100950.88;4922726;29;20041;-93
2022/10/23 04:59:18;;;;;;;363.13;72.60;;;;;;;14.72;100.00;100955.50;4919678;29;20040;-90
2022/10/23 05:01:44;;;;;;;274.75;75.78;;;;;;;14.63;100.00;100963.75;4918386;29;20032;-90
2022/10/23 05:04:09;;;;;;;305.92;73.93;;;;;;;14.60;100.00;100967.59;4919995;29;20386;-89
2022/10/23 05:06:58;;;;;;;282.58;77.70;;;;;;;14.62;100.00;100970.09;4917304;29;20036;-88
2022/10/23 05:09:40;;;;;;;300.75;78.68;;;;;;;14.63;100.00;100969.09;4919314;29;20509;-89
2022/10/23 05:12:26;;;;;;;465.98;81.40;;;;;;;14.61;100.00;100969.28;4921135;29;20078;-89
2022/10/23 05:14:52;;;;;;;330.17;78.47;;;;;;;14.58;100.00;100974.97;4918436;29;20036;-91
2022/10/23 05:17:27;;;;;;;405.45;81.38;;;;;;;14.59;100.00;100975.78;4921195;29;20063;-87
2022/10/23 05:19:54;;;;;;;650.60;89.03;;;;;;;14.53;100.00;100971.16;4922216;29;20059;-88
2022/10/23 05:22:24;;;;;;;477.85;86.45;;;;;;;14.52;100.00;100964.97;4924108;29;20031;-89
2022/10/23 05:24:52;;;;;;;1093.80;111.45;;;;;;;14.49;100.00;100976.00;4924837;29;20036;-89
2022/10/23 05:27:22;;;;;;;627.92;91.63;;;;;;;14.45;100.00;100974.69;4920861;29;20055;-86
2022/10/23 05:29:49;;;;;;;669.53;96.00;;;;;;;-142.57;100.00;61215.63;4925659;29;20051;-89
2022/10/23 05:32:18;;;;;;;522.55;89.70;;;;;;;-142.57;100.00;61215.63;4925845;29;20043;-89
2022/10/23 05:34:44;;;;;;;426.90;84.88;;;;;;;-142.57;100.00;61215.63;4928224;29;20044;-91
2022/10/23 05:37:13;;;;;;;789.03;98.22;;;;;;;-142.57;100.00;61215.63;4927768;29;20032;-88
2022/10/23 05:39:40;;;;;;;363.65;80.35;;;;;;;-142.57;100.00;61215.63;4927061;29;20024;-90
2022/10/23 05:42:12;;;;;;;249.73;76.55;;;;;;;-142.57;100.00;61215.63;4926222;29;20088;-90
2022/10/23 05:44:41;;;;;;;219.57;75.13;;;;;;;-142.57;100.00;61215.63;4926181;29;20067;-89
2022/10/23 05:47:10;;;;;;;523.80;77.03;;;;;;;-142.57;100.00;61215.63;4928093;29;20556;-88
2022/10/23 05:49:56;;;;;;;536.65;81.47;;;;;;;-142.57;100.00;61215.63;4927754;29;20082;-92
2022/10/23 05:52:40;;;;;;;727.83;79.82;;;;;;;-142.57;100.00;61215.63;4931402;29;20091;-90
2022/10/23 05:55:08;;;;;;;298.92;75.78;;;;;;;-142.57;100.00;61215.63;4929007;29;20080;-88
2022/10/23 05:58:09;;;;;;;647.97;85.53;;;;;;;-142.57;100.00;61215.63;4917637;29;20390;-90
2022/10/23 06:00:59;;;;;;;330.08;71.20;;;;;;;-142.57;100.00;61215.63;4926358;29;20059;-88
2022/10/23 06:03:43;;;;;;;740.72;87.03;;;;;;;-142.57;100.00;61215.63;4930441;29;20055;-88
2022/10/23 06:06:10;;;;;;;445.33;73.63;;;;;;;-142.57;100.00;61215.63;4930055;29;20036;-88
2022/10/23 06:08:56;;;;;;;299.95;71.68;;;;;;;-142.57;100.00;61215.63;4923913;29;20054;-88
2022/10/23 06:11:25;;;;;;;569.28;80.95;;;;;;;-142.57;100.00;61215.63;4912951;29;20040;-89
2022/10/23 06:13:59;;;;;;;373.33;76.60;;;;;;;-142.57;100.00;61215.63;4930893;29;20105;-91
2022/10/23 06:16:28;;;;;;;332.55;75.32;;;;;;;-142.57;100.00;61215.63;4930256;29;20092;-89
2022/10/23 06:18:54;;;;;;;460.30;81.38;;;;;;;-142.57;100.00;61215.63;4928906;29;20035;-89
2022/10/23 06:21:46;;;;;;;420.30;73.60;;;;;;;-142.57;100.00;61215.63;4930013;29;20183;-89
2022/10/23 06:24:19;;;;;;;268.52;71.43;;;;;;;-142.57;100.00;61215.63;4933372;29;20025;-90
2022/10/23 06:27:00;;;;;;;356.80;75.05;;;;;;;-142.57;100.00;61215.63;4930611;29;20037;-89
2022/10/23 06:29:41;;;;;;;236.68;64.22;;;;;;;-142.57;100.00;61215.63;4928884;29;20032;-89
2022/10/23 06:32:08;;;;;;;380.08;64.60;;;;;;;-142.57;100.00;61215.63;4917850;23;20044;-89
2022/10/23 06:34:37;;;;;;;282.33;58.65;;;;;;;-142.57;100.00;61215.63;4896158;29;20550;-90
2022/10/23 06:37:05;;;;;;;259.85;61.83;;;;;;;-142.57;100.00;61215.63;4880926;29;20037;-91
2022/10/23 06:39:46;;;;;;;255.45;62.30;;;;;;;-142.57;100.00;61215.63;4877357;29;20037;-88
2022/10/23 06:42:14;;;;;;;235.30;61.85;;;;;;;-142.57;100.00;61215.63;4878489;29;20037;-87
2022/10/23 06:44:56;;;;;;;239.95;62.70;;;;;;;-142.57;100.00;61215.63;4892209;29;20487;-88
2022/10/23 06:47:41;;;;;;;291.65;62.40;;;;;;;-142.57;100.00;61215.63;4869839;29;20525;-88
2022/10/23 06:50:33;;;;;;;305.30;62.85;;;;;;;-142.57;100.00;61215.63;4893831;29;20081;-90
2022/10/23 06:53:05;;;;;;;250.07;63.28;;;;;;;-142.57;100.00;61215.63;4895018;29;20399;-89
2022/10/23 06:55:35;;;;;;;271.77;59.20;;;;;;;-142.57;100.00;61215.63;4894622;29;20050;-88
2022/10/23 06:58:09;;;;;;;336.33;61.60;;;;;;;-142.57;100.00;61215.63;4894896;29;20128;-89
2022/10/23 07:01:04;;;;;;;352.50;60.53;;;;;;;-142.57;100.00;61215.63;4894613;29;20120;-89
2022/10/23 07:03:31;;;;;;;225.77;57.00;;;;;;;-142.57;100.00;61215.63;4894138;29;20069;-87
2022/10/23 07:06:07;;;;;;;277.85;60.00;;;;;;;-142.57;100.00;61215.63;4895725;29;20081;-87
2022/10/23 07:08:34;;;;;;;333.33;66.03;;;;;;;-142.57;100.00;61215.63;4897959;29;20479;-88
2022/10/23 07:11:06;;;;;;;315.77;64.15;;;;;;;-142.57;100.00;61215.63;4896443;29;20029;-88
2022/10/23 07:13:37;;;;;;;199.02;61.10;;;;;;;-142.57;100.00;61215.63;4896534;29;20139;-88
2022/10/23 07:16:23;;;;;;;229.80;60.97;;;;;;;-142.57;100.00;61215.63;4894778;29;20101;-88
2022/10/23 07:19:00;;;;;;;366.73;62.05;;;;;;;-142.57;100.00;61215.63;4895350;29;20048;-88
2022/10/23 07:21:31;;;;;;;297.15;66.50;;;;;;;-142.57;100.00;61215.63;4879510;29;20045;-87
2022/10/23 07:24:14;;;;;;;246.13;67.70;;;;;;;-142.57;100.00;61215.63;4894074;29;20037;-89
2022/10/23 07:29:39;;;;;;;454.15;75.70;;;;;;;-142.57;100.00;61215.63;4951867;23;20140;-88
2022/10/23 07:32:06;;;;;;;;;;;;;;;-142.57;100.00;61215.63;4914939;29;20545;-89
2022/10/23 07:35:00;;;;;;;341.23;70.22;;;;;;;-142.57;100.00;61215.63;4900702;29;19932;-87
2022/10/23 07:37:32;;;;;;;294.85;73.55;;;;;;;-142.57;100.00;61215.63;4898723;29;20037;-88
2022/10/23 07:40:30;;;;;;;195.57;51.30;;;;;;;-142.57;100.00;61215.63;4914195;29;20041;-89
2022/10/23 07:43:13;;;;;;;299.52;69.68;;;;;;;-142.57;100.00;61215.63;4914218;29;20123;-89
2022/10/23 07:45:40;;;;;;;316.27;67.65;;;;;;;-142.57;100.00;61215.63;4896890;29;20047;-88
2022/10/23 07:48:26;;;;;;;192.95;67.13;;;;;;;-142.57;100.00;61215.63;4914002;29;20489;-87
2022/10/23 07:51:02;;;;;;;235.55;63.58;;;;;;;-142.57;100.00;61215.63;4909628;29;20037;-89
2022/10/23 07:53:29;;;;;;;280.70;67.55;;;;;;;-142.57;100.00;61215.63;4924801;29;20074;-90
2022/10/23 07:56:35;;;;;;;193.20;63.40;;;;;;;-142.57;100.00;61215.63;4919292;29;20493;-89
2022/10/23 07:59:25;;;;;;;185.02;62.95;;;;;;;-142.57;100.00;61215.63;4933162;29;20191;-88
2022/10/23 08:01:58;;;;;;;153.87;58.17;;;;;;;-142.57;100.00;61215.63;4956031;23;20044;-89
2022/10/23 08:04:39;;;;;;;172.23;60.08;;;;;;;-142.57;100.00;61215.63;4913819;29;20292;-89
2022/10/23 08:07:28;;;;;;;198.95;54.97;;;;;;;-142.57;100.00;61215.63;4902121;29;20524;-89
2022/10/23 08:09:59;;;;;;;148.07;56.78;;;;;;;-142.57;100.00;61215.63;4900821;29;20041;-86
2022/10/23 08:12:25;;;;;;;160.73;63.53;;;;;;;-142.57;100.00;61215.63;4901717;29;20045;-84
2022/10/23 08:14:52;;;;;;;142.48;55.42;;;;;;;-142.57;100.00;61215.63;4902161;29;20479;-86
2022/10/23 08:17:18;;;;;;;134.23;55.05;;;;;;;-142.57;100.00;61215.63;4904336;29;20131;-88
2022/10/23 08:22:50;;;;;;;119.18;51.42;;;;;;;-142.57;100.00;61215.63;4888224;29;20069;-88
2022/10/23 08:25:21;;;;;;;110.60;49.80;;;;;;;-142.57;100.00;61215.63;4889651;29;20135;-87
2022/10/23 08:27:47;;;;;;;108.43;50.00;;;;;;;-142.57;100.00;61215.63;4887781;29;20080;-88
2022/10/23 08:30:14;;;;;;;137.20;70.85;;;;;;;-142.57;100.00;61215.63;4875354;29;20033;-86
2022/10/23 08:32:45;;;;;;;102.00;46.28;;;;;;;-142.57;100.00;61215.63;4889159;29;20041;-85
2022/10/23 08:35:12;;;;;;;92.78;45.17;;;;;;;-142.57;100.00;61215.63;4866399;29;20014;-85
2022/10/23 08:37:38;;;;;;;106.63;46.92;;;;;;;-142.57;100.00;61215.63;4880745;29;20063;-85
2022/10/23 08:40:22;;;;;;;108.40;45.67;;;;;;;-142.57;100.00;61215.63;4888890;29;20026;-86
2022/10/23 08:43:09;;;;;;;102.63;46.47;;;;;;;-142.57;100.00;61215.63;4894981;29;20051;-87
2022/10/23 08:45:52;;;;;;;119.28;47.15;;;;;;;-142.57;100.00;61215.63;4887416;29;20037;-86
2022/10/23 08:48:47;;;;;;;104.07;46.70;;;;;;;-142.57;100.00;61215.63;4890906;29;20041;-85
2022/10/23 08:51:49;;;;;;;102.10;45.70;;;;;;;-142.57;100.00;61215.63;4891544;29;20041;-87
2022/10/23 08:54:53;;;;;;;;;;;;;;;-142.57;100.00;61215.63;4874912;29;20041;-87
2022/10/23 08:57:22;;;;;;;109.57;49.00;;;;;;;-142.57;100.00;61215.63;4872663;29;19924;-87
2022/10/23 08:59:56;;;;;;;108.35;49.92;;;;;;;-142.57;100.00;61215.63;4855243;29;20049;-86
2022/10/23 09:02:32;;;;;;;115.40;47.92;;;;;;;-142.57;100.00;61215.63;4870490;29;20060;-88
2022/10/23 09:04:58;;;;;;;121.68;51.08;;;;;;;-142.57;100.00;61215.63;4843060;29;20230;-88
2022/10/23 09:07:46;;;;;;;123.43;50.13;;;;;;;-142.57;100.00;61215.63;4856525;29;20065;-86
2022/10/23 09:10:38;;;;;;;117.13;48.30;;;;;;;-142.57;100.00;61215.63;4894109;29;20116;-85
2022/10/23 09:13:48;;;;;;;112.55;48.45;;;;;;;-142.57;100.00;61215.63;4888046;29;20041;-87
2022/10/23 09:16:39;;;;;;;114.88;49.35;;;;;;;-142.57;100.00;61215.63;4873305;29;20053;-85
2022/10/23 09:19:14;;;;;;;120.70;50.80;;;;;;;-142.57;100.00;61215.63;4860405;29;20061;-85
2022/10/23 09:21:40;;;;;;;126.00;51.30;;;;;;;-142.57;100.00;61215.63;4883781;29;20038;-85
2022/10/23 09:24:13;;;;;;;121.75;55.47;;;;;;;-142.57;100.00;61215.63;4884754;29;20049;-87
2022/10/23 09:26:48;;;;;;;123.40;50.63;;;;;;;-142.57;100.00;61215.63;4882652;29;20041;-88
2022/10/23 09:29:24;;;;;;;123.28;51.03;;;;;;;-142.57;100.00;61215.63;4866699;29;20089;-86
2022/10/23 09:31:56;;;;;;;124.72;52.08;;;;;;;-142.57;100.00;61215.63;4884239;29;20393;-87
2022/10/23 09:34:24;;;;;;;118.10;53.00;;;;;;;-142.57;100.00;61215.63;4869196;29;20045;-88
2022/10/23 09:37:01;;;;;;;133.23;58.22;;;;;;;-142.57;100.00;61215.63;4873925;29;20387;-89
2022/10/23 09:39:32;;;;;;;122.57;51.30;;;;;;;-142.57;100.00;61215.63;4870194;29;20037;-85
2022/10/23 09:42:13;;;;;;;109.00;48.53;;;;;;;-142.57;100.00;61215.63;4874942;29;20038;-86
2022/10/23 09:44:48;;;;;;;100.30;45.90;;;;;;;-142.57;100.00;61215.63;4889305;29;20120;-87
2022/10/23 09:47:19;;;;;;;98.85;46.35;;;;;;;-142.57;100.00;61215.63;4879938;29;20053;-86
2022/10/23 09:49:54;;;;;;;103.90;46.33;;;;;;;-142.57;100.00;61215.63;4871913;29;20037;-87
2022/10/23 09:52:25;;;;;;;94.35;45.03;;;;;;;-142.57;100.00;61215.63;4872553;29;20045;-86
2022/10/23 09:55:00;;;;;;;79.97;34.83;;;;;;;-142.57;100.00;61215.63;4866136;29;20038;-86
2022/10/23 09:57:41;;;;;;;102.35;46.78;;;;;;;-142.57;100.00;61215.63;4876327;29;20124;-87
2022/10/23 10:00:13;;;;;;;105.10;47.08;;;;;;;-142.57;100.00;61215.63;4872688;29;20064;-83
2022/10/23 10:02:53;;;;;;;104.72;47.80;;;;;;;-142.57;100.00;61215.63;4869950;29;20049;-87
2022/10/23 10:05:37;;;;;;;100.60;48.72;;;;;;;-142.57;100.00;61215.63;4872013;29;20074;-85
2022/10/23 10:08:07;;;;;;;106.25;47.70;;;;;;;-142.57;100.00;61215.63;4882161;29;20044;-86
2022/10/23 10:10:51;;;;;;;105.53;47.67;;;;;;;-142.57;100.00;61215.63;4869751;29;20037;-88
2022/10/23 10:13:23;;;;;;;113.00;48.55;;;;;;;-142.57;100.00;61215.63;4868625;29;20534;-85
2022/10/23 10:15:54;;;;;;;109.07;49.90;;;;;;;-142.57;100.00;61215.63;4874659;29;20037;-88
2022/10/23 10:18:34;;;;;;;114.85;50.70;;;;;;;-142.57;100.00;61215.63;4875952;29;20037;-87
2022/10/23 10:21:20;;;;;;;113.20;50.17;;;;;;;-142.57;100.00;61215.63;4870955;29;20479;-92
2022/10/23 10:24:20;;;;;;;106.80;51.08;;;;;;;-142.57;100.00;61215.63;4887147;29;20118;-86
2022/10/23 14:21:47;;;;;;;;;;;;;;;20.29;100.00;100962.19;5170240;23;20072;-85
2022/10/23 14:24:13;;;;;;;54.28;30.42;;;;;;;20.30;100.00;100969.25;4885363;29;19924;-89
2022/10/23 14:26:39;;;;;;;53.45;30.40;;;;;;;20.22;100.00;100958.69;4883609;29;20068;-86
2022/10/23 14:29:25;;;;;;;60.60;32.17;;;;;;;20.15;100.00;100960.59;4886260;29;20123;-87
2022/10/23 14:31:51;;;;;;;49.35;30.13;;;;;;;20.10;100.00;100962.06;4887150;29;20505;-87
2022/10/23 14:34:20;;;;;;;60.08;30.73;;;;;;;20.18;100.00;100960.16;4889925;29;20076;-85
2022/10/23 14:36:47;;;;;;;49.75;30.38;;;;;;;20.13;100.00;100956.25;4888799;29;20143;-87
2022/10/23 14:39:13;;;;;;;60.55;32.88;;;;;;;20.05;100.00;100961.06;4887498;29;20061;-86
2022/10/23 14:41:39;;;;;;;51.30;29.30;;;;;;;20.22;100.00;100953.31;4884664;29;20107;-86
2022/10/23 14:44:11;;;;;;;55.08;31.10;;;;;;;20.19;100.00;100956.41;4883755;29;20036;-86
2022/10/23 14:46:42;;;;;;;52.03;30.80;;;;;;;20.17;100.00;100953.94;4883210;29;20454;-88
2022/10/23 14:49:11;;;;;;;55.83;31.15;;;;;;;20.27;100.00;100962.44;4866212;29;20064;-87
2022/10/23 14:51:36;;;;;;;52.35;29.58;;;;;;;20.23;100.00;100946.88;4881573;29;20059;-87
2022/10/23 14:54:03;;;;;;;51.53;28.90;;;;;;;20.41;100.00;100949.72;4881669;29;20537;-88
2022/10/23 14:56:32;;;;;;;51.20;28.67;;;;;;;20.36;100.00;100952.22;4885762;29;20037;-89
2022/10/23 14:59:01;;;;;;;58.08;31.35;;;;;;;20.22;100.00;100946.03;4868986;29;20041;-90
2022/10/23 15:01:34;;;;;;;55.08;29.55;;;;;;;20.13;100.00;100948.16;4883214;29;20025;-91
2022/10/23 15:04:03;;;;;;;50.90;29.52;;;;;;;20.15;100.00;100950.63;4887556;29;20032;-92
2022/10/23 15:06:29;;;;;;;55.92;29.30;;;;;;;20.29;100.00;100956.81;4901489;29;20052;-90
2022/10/23 15:08:57;;;;;;;51.38;28.23;;;;;;;20.13;100.00;100953.53;4901725;29;20032;-87
2022/10/23 15:11:23;;;;;;;50.17;29.50;;;;;;;20.12;100.00;100946.50;4904024;29;20037;-88
2022/10/23 15:13:49;;;;;;;50.00;30.77;;;;;;;19.91;100.00;100949.50;4901917;29;20029;-91
2022/10/23 15:16:15;;;;;;;50.70;29.20;;;;;;;19.96;100.00;100957.75;4899471;29;20036;-92
2022/10/23 15:18:41;;;;;;;53.50;30.55;;;;;;;19.94;100.00;100954.47;4903381;29;20044;-88
2022/10/23 15:50:48;;;;;;;50.30;28.02;;;;;;;19.96;100.00;100957.75;4982265;23;20131;-88
2022/10/23 15:53:14;;;;;;;50.88;28.67;;;;;;;19.92;100.00;100961.09;4902201;29;20071;-87
2022/10/23 15:55:40;;;;;;;45.03;28.45;;;;;;;19.89;100.00;100959.63;4901963;29;20040;-89